Hauptseite
METAR-TAF:

METAR-TAF

Flughäfen :

Flughafen Inverness

Inverness, Schottland

Breite: 57-32N, Länge: 004-03W, Höhe: 9 m

Beobachtung

Neuester Wetterbericht von vor 13 Minuten, um 12:20 UTC
Wind 10 kt aus Süd/Südost
Temperatur 6°C
Luftfeuchtigkeit 75%
Luftdruck 995 hPa
Sichtweite 10 km oder mehr
Leicht bewölkt in der Höhe von 3200 ft

METAR: EGPE 191220Z 16010KT 9999 FEW032 06/02 Q0995

Zeit: 12:33 (12:33 UTC)

Prognose

Neuester Wetterbericht von vor 1 Stunde und 36 Minuten, um 10:57 UTC
Gültige Prognose vom 19 um 12 UTC bis 19 um 21 UTC
Wind 7 kt aus Süd/Südost
Sichtweite 10 km oder mehr
Leicht bewölkt in der Höhe von 3500 ft

TAF: EGPE 191057Z 1912/1921 16007KT 9999 FEW035

Wetterbeobachtungen und Prognosen von mehr als 4000 Flughäfen (METAR und TAF Bericht).

Die verfügbaren Stationen werden durch gelbe und rote Markierungen auf der Karte dargestellt.

Führen Sie die Maus auf sie, um den Namen der Station zu sehen.

Darauf klicken, um die Beobachtung von Wetterbeobachtungen und Prognosen zu sehen.

Um die Karte zu ändern : klicken Sie auf den grünen Tasten mit einem schwarzen Kreuz Zum Vergrößern, auf den grünen Button mit einem Gedankenstrich zu verkleinern, oder auf die grünen Pfeile für benachbarte Karten.


METAR-TAF: